Terminal Aerodrome Forecast
Issued by NWS

Home | Current Version | Previous Version | Text Only | Print | Product List | Glossary On
Versions: 1 2 3 4 5 6 7 8 9 10 11 12 13 14 15 16 17 18 19 20 21 22 23 24 25 26 27 28
000
FTUS41 KPBZ 230850 AAA
TAFFKL
TAF AMD
KFKL 230850Z 2309/2406 22004KT 1 1/2SM BR OVC002
     FM231400 20004KT 4SM BR OVC003
     FM231500 21005KT P6SM OVC015
     FM240300 26003KT P6SM -SHRA BKN030
      AMD LTD TO CLD VIS AND WIND=

USA.gov is the U.S. government's official web portal to all federal, state and local government web resources and services.